This is the latest recevied weather packets stored in our database for station/object 5B4APJ-13. If no packets are shown the sender has not sent any weather packets the latest 10 day(s).
| Time | Temp. | Humidity | Pressure | Rain* | Wind** | Luminosity | Snow |
|---|---|---|---|---|---|---|---|
| 1777782425 | 13.33° C | 90% | 1007.6 hPa | 0.25 mm | 0.45 m/s, 342° | 35 W/m² | - |
| 1777782125 | 13.33° C | 89% | 1007.3 hPa | 0 mm | 0 m/s | 26 W/m² | - |
| 1777781825 | 13.33° C | 90% | 1007.3 hPa | 0 mm | 0 m/s | 28 W/m² | - |
| 1777781525 | 13.33° C | 89% | 1007.4 hPa | 0 mm | 0 m/s | 40 W/m² | - |
| 1777781225 | 13.33° C | 89% | 1007.4 hPa | 0 mm | 0 m/s | 35 W/m² | - |
| 1777780924 | 13.33° C | 89% | 1007.1 hPa | 0 mm | 0 m/s | 34 W/m² | - |
| 1777780625 | 13.33° C | 89% | 1006.7 hPa | 0 mm | 0 m/s | 20 W/m² | - |
| 1777780325 | 13.33° C | 89% | 1006.9 hPa | 0 mm | 0.45 m/s, 341° | 22 W/m² | - |
| 1777780025 | 13.33° C | 89% | 1006.9 hPa | 0 mm | 0.45 m/s, 340° | 26 W/m² | - |
| 1777779725 | 13.33° C | 89% | 1006.9 hPa | 0 mm | 0 m/s | 21 W/m² | - |
| 1777779425 | 13.33° C | 88% | 1006.8 hPa | 0 mm | 0.45 m/s, 340° | 10 W/m² | - |
| 1777779125 | 13.33° C | 89% | 1006.7 hPa | 0 mm | 0 m/s | 9 W/m² | - |
| 1777778825 | 13.33° C | 89% | 1006.8 hPa | 0 mm | 0.45 m/s, 292° | 9 W/m² | - |
| 1777778525 | 13.33° C | 89% | 1006.7 hPa | 0 mm | 0 m/s | 6 W/m² | - |
| 1777778225 | 13.33° C | 89% | 1006.9 hPa | 0 mm | 0.45 m/s, 292° | 4 W/m² | - |
| 1777777924 | 13.33° C | 90% | 1006.9 hPa | 0 mm | 0 m/s | 4 W/m² | - |
| 1777777625 | 12.78° C | 91% | 1007.1 hPa | 0 mm | 0 m/s | 4 W/m² | - |
| 1777777324 | 12.78° C | 91% | 1007 hPa | 0 mm | 0.45 m/s, 288° | 2 W/m² | - |
| 1777777025 | 12.78° C | 91% | 1006.6 hPa | 0 mm | 0.45 m/s, 10° | 2 W/m² | - |
| 1777776724 | 12.78° C | 92% | 1006.6 hPa | 0 mm | 0.89 m/s, 18° | 1 W/m² | - |
| 1777776425 | 12.78° C | 92% | 1007.1 hPa | 0 mm | 0 m/s | 0 W/m² | - |
| 1777776124 | 12.78° C | 92% | 1006.7 hPa | 0 mm | 0.45 m/s, 354° | 0 W/m² | - |
| 1777775825 | 12.78° C | 92% | 1006.7 hPa | 0 mm | 0.45 m/s, 343° | 0 W/m² | - |
| 1777775525 | 12.78° C | 92% | 1006.8 hPa | 0 mm | 0 m/s | 0 W/m² | - |
| 1777775225 | 13.33° C | 93% | 1006.7 hPa | 0.25 mm | 0.45 m/s, 70° | 0 W/m² | - |
* Rain latest hour (hover to see other rain measurements)
** Current wind speed in m/s (hover to see current wind gust speed)